This is the latest recevied weather packets stored in our database for station/object 9M2SAR-10. If no packets are shown the sender has not sent any weather packets the latest 10 day(s).
| Time | Temp. | Humidity | Pressure | Rain* | Wind** | Luminosity | Snow |
|---|---|---|---|---|---|---|---|
| 1777456862 | 33.33° C | 100% | 1006.6 hPa | - | - | - | - |
| 1777455962 | 33.89° C | 100% | 1006.7 hPa | - | - | - | - |
| 1777455062 | 33.89° C | 100% | 1006.6 hPa | - | - | - | - |
| 1777454162 | 33.33° C | 100% | 1007 hPa | - | - | - | - |
| 1777453262 | 32.78° C | 100% | 1007 hPa | - | - | - | - |
| 1777452362 | 33.89° C | 100% | 1006.8 hPa | - | - | - | - |
| 1777451462 | 33.33° C | 100% | 1006.8 hPa | - | - | - | - |
| 1777450562 | 34.44° C | 100% | 1007 hPa | - | - | - | - |
| 1777449662 | 33.89° C | 100% | 1007.1 hPa | - | - | - | - |
| 1777448761 | 34.44° C | 100% | 1007.5 hPa | - | - | - | - |
| 1777447861 | 35° C | 100% | 1007.6 hPa | - | - | - | - |
| 1777446961 | 35° C | 100% | 1007.8 hPa | - | - | - | - |
| 1777446061 | 35° C | 100% | 1008.3 hPa | - | - | - | - |
| 1777445161 | 35° C | 100% | 1008.5 hPa | - | - | - | - |
| 1777444261 | 35° C | 100% | 1008.6 hPa | - | - | - | - |
| 1777443361 | 35.56° C | 100% | 1008.9 hPa | - | - | - | - |
| 1777442461 | 35° C | 100% | 1009.2 hPa | - | - | - | - |
| 1777313457 | 28.33° C | 100% | 1008.2 hPa | - | - | - | - |
| 1777312557 | 28.33° C | 100% | 1008.4 hPa | - | - | - | - |
| 1777311657 | 28.33° C | 100% | 1008.5 hPa | - | - | - | - |
| 1777310757 | 27.78° C | 100% | 1008.6 hPa | - | - | - | - |
| 1777309857 | 27.78° C | 100% | 1009 hPa | - | - | - | - |
| 1777308956 | 28.33° C | 100% | 1009.3 hPa | - | - | - | - |
| 1777308056 | 28.33° C | 100% | 1009.3 hPa | - | - | - | - |
| 1777307156 | 28.33° C | 100% | 1009.4 hPa | - | - | - | - |
* Rain since midnight (hover to see other rain measurements)
** Current wind speed in m/s (hover to see current wind gust speed)